sensor_id;sensor_type;location;lat;lon;timestamp;P1;durP1;ratioP1;P2;durP2;ratioP2
16804;SDS011;8520;50.102;20.010;2024-02-26T00:01:42;24.70;;;22.30;;
16804;SDS011;8520;50.102;20.010;2024-02-26T00:04:11;27.80;;;25.00;;
16804;SDS011;8520;50.102;20.010;2024-02-26T00:06:39;26.10;;;23.40;;
16804;SDS011;8520;50.102;20.010;2024-02-26T00:09:09;26.67;;;23.90;;
16804;SDS011;8520;50.102;20.010;2024-02-26T00:11:38;27.00;;;24.17;;
16804;SDS011;8520;50.102;20.010;2024-02-26T00:14:06;27.67;;;24.90;;
16804;SDS011;8520;50.102;20.010;2024-02-26T00:16:34;26.60;;;24.00;;
16804;SDS011;8520;50.102;20.010;2024-02-26T00:19:02;27.77;;;25.07;;
16804;SDS011;8520;50.102;20.010;2024-02-26T00:21:30;27.13;;;24.33;;
16804;SDS011;8520;50.102;20.010;2024-02-26T00:23:58;27.00;;;24.37;;
16804;SDS011;8520;50.102;20.010;2024-02-26T00:26:27;25.93;;;23.53;;
16804;SDS011;8520;50.102;20.010;2024-02-26T00:28:55;25.37;;;22.97;;
16804;SDS011;8520;50.102;20.010;2024-02-26T00:31:23;28.00;;;25.10;;
16804;SDS011;8520;50.102;20.010;2024-02-26T00:33:51;25.80;;;23.40;;
16804;SDS011;8520;50.102;20.010;2024-02-26T00:36:20;27.13;;;24.43;;
16804;SDS011;8520;50.102;20.010;2024-02-26T00:38:48;27.27;;;24.77;;
16804;SDS011;8520;50.102;20.010;2024-02-26T00:41:18;27.50;;;24.90;;
16804;SDS011;8520;50.102;20.010;2024-02-26T00:43:47;28.20;;;25.40;;
16804;SDS011;8520;50.102;20.010;2024-02-26T00:46:15;28.20;;;25.67;;
16804;SDS011;8520;50.102;20.010;2024-02-26T00:48:43;29.23;;;26.43;;
16804;SDS011;8520;50.102;20.010;2024-02-26T00:51:12;29.13;;;26.50;;
16804;SDS011;8520;50.102;20.010;2024-02-26T00:53:40;32.10;;;29.27;;
16804;SDS011;8520;50.102;20.010;2024-02-26T00:56:08;32.30;;;29.40;;
16804;SDS011;8520;50.102;20.010;2024-02-26T00:58:36;32.30;;;29.20;;
16804;SDS011;8520;50.102;20.010;2024-02-26T01:01:05;32.40;;;29.40;;
16804;SDS011;8520;50.102;20.010;2024-02-26T01:03:33;33.60;;;30.50;;
16804;SDS011;8520;50.102;20.010;2024-02-26T01:06:01;34.23;;;31.17;;
16804;SDS011;8520;50.102;20.010;2024-02-26T01:08:30;33.30;;;30.37;;
16804;SDS011;8520;50.102;20.010;2024-02-26T01:10:58;34.90;;;31.63;;
16804;SDS011;8520;50.102;20.010;2024-02-26T01:13:26;34.50;;;31.50;;
16804;SDS011;8520;50.102;20.010;2024-02-26T01:15:54;33.53;;;30.63;;
16804;SDS011;8520;50.102;20.010;2024-02-26T01:18:24;33.77;;;30.87;;
16804;SDS011;8520;50.102;20.010;2024-02-26T01:20:52;36.70;;;33.40;;
16804;SDS011;8520;50.102;20.010;2024-02-26T01:23:21;37.83;;;34.53;;
16804;SDS011;8520;50.102;20.010;2024-02-26T01:25:49;39.03;;;35.50;;
16804;SDS011;8520;50.102;20.010;2024-02-26T01:28:17;42.33;;;38.43;;
16804;SDS011;8520;50.102;20.010;2024-02-26T01:30:45;38.23;;;34.63;;
16804;SDS011;8520;50.102;20.010;2024-02-26T01:33:13;38.03;;;34.67;;
16804;SDS011;8520;50.102;20.010;2024-02-26T01:35:43;38.87;;;35.30;;
16804;SDS011;8520;50.102;20.010;2024-02-26T01:38:11;38.83;;;35.27;;
16804;SDS011;8520;50.102;20.010;2024-02-26T01:40:39;40.47;;;36.87;;
16804;SDS011;8520;50.102;20.010;2024-02-26T01:43:06;39.47;;;36.17;;
16804;SDS011;8520;50.102;20.010;2024-02-26T01:45:34;39.43;;;36.00;;
16804;SDS011;8520;50.102;20.010;2024-02-26T01:48:02;41.00;;;37.23;;
16804;SDS011;8520;50.102;20.010;2024-02-26T01:50:31;40.10;;;36.47;;
16804;SDS011;8520;50.102;20.010;2024-02-26T01:53:02;39.53;;;36.17;;
16804;SDS011;8520;50.102;20.010;2024-02-26T01:55:30;40.73;;;37.13;;
16804;SDS011;8520;50.102;20.010;2024-02-26T01:57:58;41.07;;;37.47;;
16804;SDS011;8520;50.102;20.010;2024-02-26T02:00:27;42.63;;;38.97;;
16804;SDS011;8520;50.102;20.010;2024-02-26T02:02:55;41.93;;;38.37;;
16804;SDS011;8520;50.102;20.010;2024-02-26T02:05:23;46.13;;;41.87;;
16804;SDS011;8520;50.102;20.010;2024-02-26T02:07:52;43.80;;;40.07;;
16804;SDS011;8520;50.102;20.010;2024-02-26T02:10:22;42.47;;;38.97;;
16804;SDS011;8520;50.102;20.010;2024-02-26T02:12:52;41.47;;;38.20;;
16804;SDS011;8520;50.102;20.010;2024-02-26T02:15:20;43.40;;;39.67;;
16804;SDS011;8520;50.102;20.010;2024-02-26T02:17:48;43.17;;;39.77;;
16804;SDS011;8520;50.102;20.010;2024-02-26T02:20:17;42.03;;;38.73;;
16804;SDS011;8520;50.102;20.010;2024-02-26T02:22:47;44.30;;;40.80;;
16804;SDS011;8520;50.102;20.010;2024-02-26T02:25:15;44.77;;;41.27;;
16804;SDS011;8520;50.102;20.010;2024-02-26T02:27:43;46.27;;;42.57;;
16804;SDS011;8520;50.102;20.010;2024-02-26T02:30:11;48.43;;;44.43;;
16804;SDS011;8520;50.102;20.010;2024-02-26T02:32:39;49.07;;;44.90;;
16804;SDS011;8520;50.102;20.010;2024-02-26T02:35:08;51.53;;;47.00;;
16804;SDS011;8520;50.102;20.010;2024-02-26T02:37:36;53.27;;;48.63;;
16804;SDS011;8520;50.102;20.010;2024-02-26T02:40:07;54.07;;;49.27;;
16804;SDS011;8520;50.102;20.010;2024-02-26T02:42:35;52.93;;;48.33;;
16804;SDS011;8520;50.102;20.010;2024-02-26T02:45:03;52.67;;;48.00;;
16804;SDS011;8520;50.102;20.010;2024-02-26T02:47:31;51.57;;;46.97;;
16804;SDS011;8520;50.102;20.010;2024-02-26T02:49:59;49.70;;;45.30;;
16804;SDS011;8520;50.102;20.010;2024-02-26T02:52:27;48.67;;;44.60;;
16804;SDS011;8520;50.102;20.010;2024-02-26T02:54:55;45.93;;;42.03;;
16804;SDS011;8520;50.102;20.010;2024-02-26T02:57:24;44.77;;;40.97;;
16804;SDS011;8520;50.102;20.010;2024-02-26T02:59:52;44.37;;;40.57;;
16804;SDS011;8520;50.102;20.010;2024-02-26T03:02:20;43.87;;;40.27;;
16804;SDS011;8520;50.102;20.010;2024-02-26T03:04:49;37.27;;;34.50;;
16804;SDS011;8520;50.102;20.010;2024-02-26T03:07:17;38.90;;;35.80;;
16804;SDS011;8520;50.102;20.010;2024-02-26T03:09:45;37.27;;;34.37;;
16804;SDS011;8520;50.102;20.010;2024-02-26T03:12:13;35.23;;;32.53;;
16804;SDS011;8520;50.102;20.010;2024-02-26T03:14:42;35.37;;;32.67;;
16804;SDS011;8520;50.102;20.010;2024-02-26T03:17:10;36.67;;;33.90;;
16804;SDS011;8520;50.102;20.010;2024-02-26T03:19:38;37.70;;;34.67;;
16804;SDS011;8520;50.102;20.010;2024-02-26T03:22:06;35.67;;;32.87;;
16804;SDS011;8520;50.102;20.010;2024-02-26T03:24:35;34.77;;;32.27;;
16804;SDS011;8520;50.102;20.010;2024-02-26T03:27:03;35.93;;;33.10;;
16804;SDS011;8520;50.102;20.010;2024-02-26T03:29:31;35.10;;;32.43;;
16804;SDS011;8520;50.102;20.010;2024-02-26T03:32:01;35.00;;;32.40;;
16804;SDS011;8520;50.102;20.010;2024-02-26T03:34:29;33.40;;;31.00;;
16804;SDS011;8520;50.102;20.010;2024-02-26T03:36:57;32.73;;;30.23;;
16804;SDS011;8520;50.102;20.010;2024-02-26T03:39:25;32.47;;;29.90;;
16804;SDS011;8520;50.102;20.010;2024-02-26T03:41:54;37.50;;;34.30;;
16804;SDS011;8520;50.102;20.010;2024-02-26T03:44:22;42.40;;;38.77;;
16804;SDS011;8520;50.102;20.010;2024-02-26T03:46:49;41.10;;;37.70;;
16804;SDS011;8520;50.102;20.010;2024-02-26T03:49:19;39.77;;;36.53;;
16804;SDS011;8520;50.102;20.010;2024-02-26T03:51:47;37.93;;;34.83;;
16804;SDS011;8520;50.102;20.010;2024-02-26T03:54:15;39.13;;;35.97;;
16804;SDS011;8520;50.102;20.010;2024-02-26T03:56:43;37.63;;;34.43;;
16804;SDS011;8520;50.102;20.010;2024-02-26T03:59:11;32.13;;;29.90;;
16804;SDS011;8520;50.102;20.010;2024-02-26T04:01:44;31.73;;;29.63;;
16804;SDS011;8520;50.102;20.010;2024-02-26T04:04:12;33.53;;;30.90;;
16804;SDS011;8520;50.102;20.010;2024-02-26T04:06:45;33.57;;;31.20;;
16804;SDS011;8520;50.102;20.010;2024-02-26T04:09:13;31.97;;;29.70;;
16804;SDS011;8520;50.102;20.010;2024-02-26T04:11:41;35.27;;;32.37;;
16804;SDS011;8520;50.102;20.010;2024-02-26T04:14:10;34.93;;;32.17;;
16804;SDS011;8520;50.102;20.010;2024-02-26T04:16:39;35.60;;;32.97;;
16804;SDS011;8520;50.102;20.010;2024-02-26T04:19:07;36.07;;;33.27;;
16804;SDS011;8520;50.102;20.010;2024-02-26T04:21:35;36.07;;;33.00;;
16804;SDS011;8520;50.102;20.010;2024-02-26T04:24:05;35.87;;;33.10;;
16804;SDS011;8520;50.102;20.010;2024-02-26T04:26:33;40.77;;;37.00;;
16804;SDS011;8520;50.102;20.010;2024-02-26T04:29:01;38.40;;;35.40;;
16804;SDS011;8520;50.102;20.010;2024-02-26T04:31:28;39.07;;;35.77;;
16804;SDS011;8520;50.102;20.010;2024-02-26T04:33:59;37.33;;;34.43;;
16804;SDS011;8520;50.102;20.010;2024-02-26T04:36:27;35.50;;;32.70;;
16804;SDS011;8520;50.102;20.010;2024-02-26T04:38:55;35.97;;;33.17;;
16804;SDS011;8520;50.102;20.010;2024-02-26T04:41:25;35.50;;;32.80;;
16804;SDS011;8520;50.102;20.010;2024-02-26T04:43:53;36.13;;;33.33;;
16804;SDS011;8520;50.102;20.010;2024-02-26T04:46:21;38.43;;;35.53;;
16804;SDS011;8520;50.102;20.010;2024-02-26T04:48:49;40.40;;;37.30;;
16804;SDS011;8520;50.102;20.010;2024-02-26T04:51:18;41.43;;;38.17;;
16804;SDS011;8520;50.102;20.010;2024-02-26T04:53:46;42.67;;;39.23;;
16804;SDS011;8520;50.102;20.010;2024-02-26T04:56:15;44.40;;;40.70;;
16804;SDS011;8520;50.102;20.010;2024-02-26T04:58:44;45.70;;;41.90;;
16804;SDS011;8520;50.102;20.010;2024-02-26T05:01:12;46.83;;;42.93;;
16804;SDS011;8520;50.102;20.010;2024-02-26T05:03:40;49.17;;;45.07;;
16804;SDS011;8520;50.102;20.010;2024-02-26T05:06:08;50.80;;;46.60;;
16804;SDS011;8520;50.102;20.010;2024-02-26T05:08:36;51.97;;;47.43;;
16804;SDS011;8520;50.102;20.010;2024-02-26T05:11:05;51.40;;;47.17;;
16804;SDS011;8520;50.102;20.010;2024-02-26T05:13:33;52.53;;;47.73;;
16804;SDS011;8520;50.102;20.010;2024-02-26T05:16:02;50.90;;;46.80;;
16804;SDS011;8520;50.102;20.010;2024-02-26T05:18:31;52.03;;;47.67;;
16804;SDS011;8520;50.102;20.010;2024-02-26T05:20:59;51.67;;;47.53;;
16804;SDS011;8520;50.102;20.010;2024-02-26T05:23:27;51.27;;;47.07;;
16804;SDS011;8520;50.102;20.010;2024-02-26T05:25:55;49.27;;;45.27;;
16804;SDS011;8520;50.102;20.010;2024-02-26T05:28:23;51.60;;;47.50;;
16804;SDS011;8520;50.102;20.010;2024-02-26T05:30:51;52.80;;;48.50;;
16804;SDS011;8520;50.102;20.010;2024-02-26T05:33:20;56.80;;;52.03;;
16804;SDS011;8520;50.102;20.010;2024-02-26T05:35:50;56.27;;;51.77;;
16804;SDS011;8520;50.102;20.010;2024-02-26T05:38:18;55.17;;;50.77;;
16804;SDS011;8520;50.102;20.010;2024-02-26T05:40:46;56.23;;;51.73;;
16804;SDS011;8520;50.102;20.010;2024-02-26T05:43:14;56.77;;;52.17;;
16804;SDS011;8520;50.102;20.010;2024-02-26T05:45:43;52.27;;;48.27;;
16804;SDS011;8520;50.102;20.010;2024-02-26T05:48:11;51.63;;;47.57;;
16804;SDS011;8520;50.102;20.010;2024-02-26T05:50:41;48.83;;;45.13;;
16804;SDS011;8520;50.102;20.010;2024-02-26T05:53:09;47.47;;;43.97;;
16804;SDS011;8520;50.102;20.010;2024-02-26T05:55:37;46.73;;;43.43;;
16804;SDS011;8520;50.102;20.010;2024-02-26T05:58:05;50.67;;;46.77;;
16804;SDS011;8520;50.102;20.010;2024-02-26T06:00:33;48.83;;;45.23;;
16804;SDS011;8520;50.102;20.010;2024-02-26T06:03:02;49.10;;;45.47;;
16804;SDS011;8520;50.102;20.010;2024-02-26T06:05:31;50.63;;;46.87;;
16804;SDS011;8520;50.102;20.010;2024-02-26T06:08:00;50.30;;;46.33;;
16804;SDS011;8520;50.102;20.010;2024-02-26T06:10:29;47.93;;;44.43;;
16804;SDS011;8520;50.102;20.010;2024-02-26T06:12:57;48.23;;;44.53;;
16804;SDS011;8520;50.102;20.010;2024-02-26T06:15:25;50.77;;;47.10;;
16804;SDS011;8520;50.102;20.010;2024-02-26T06:17:53;49.37;;;45.77;;
16804;SDS011;8520;50.102;20.010;2024-02-26T06:20:21;49.33;;;45.70;;
16804;SDS011;8520;50.102;20.010;2024-02-26T06:22:50;49.33;;;45.63;;
16804;SDS011;8520;50.102;20.010;2024-02-26T06:25:20;49.97;;;46.37;;
16804;SDS011;8520;50.102;20.010;2024-02-26T06:27:48;51.10;;;47.30;;
16804;SDS011;8520;50.102;20.010;2024-02-26T06:30:16;50.27;;;46.50;;
16804;SDS011;8520;50.102;20.010;2024-02-26T06:32:44;50.67;;;46.57;;
16804;SDS011;8520;50.102;20.010;2024-02-26T06:35:13;49.63;;;46.03;;
16804;SDS011;8520;50.102;20.010;2024-02-26T06:37:41;49.43;;;45.67;;
16804;SDS011;8520;50.102;20.010;2024-02-26T06:40:09;47.57;;;44.23;;
16804;SDS011;8520;50.102;20.010;2024-02-26T06:42:38;49.87;;;46.17;;
16804;SDS011;8520;50.102;20.010;2024-02-26T06:45:07;47.63;;;44.10;;
16804;SDS011;8520;50.102;20.010;2024-02-26T06:47:35;47.50;;;44.20;;
16804;SDS011;8520;50.102;20.010;2024-02-26T06:50:03;48.00;;;44.53;;
16804;SDS011;8520;50.102;20.010;2024-02-26T06:52:31;47.30;;;43.63;;
16804;SDS011;8520;50.102;20.010;2024-02-26T06:54:59;45.33;;;42.23;;
16804;SDS011;8520;50.102;20.010;2024-02-26T06:57:27;46.87;;;43.07;;
16804;SDS011;8520;50.102;20.010;2024-02-26T06:59:57;46.07;;;42.53;;
16804;SDS011;8520;50.102;20.010;2024-02-26T07:02:26;47.33;;;43.73;;
16804;SDS011;8520;50.102;20.010;2024-02-26T07:04:54;49.20;;;45.33;;
16804;SDS011;8520;50.102;20.010;2024-02-26T07:07:22;54.33;;;49.87;;
16804;SDS011;8520;50.102;20.010;2024-02-26T07:09:51;46.37;;;42.67;;
16804;SDS011;8520;50.102;20.010;2024-02-26T07:12:19;38.13;;;35.37;;
16804;SDS011;8520;50.102;20.010;2024-02-26T07:14:48;37.53;;;35.03;;
16804;SDS011;8520;50.102;20.010;2024-02-26T07:17:18;37.90;;;35.10;;
16804;SDS011;8520;50.102;20.010;2024-02-26T07:19:46;35.73;;;33.43;;
16804;SDS011;8520;50.102;20.010;2024-02-26T07:22:14;35.37;;;32.80;;
16804;SDS011;8520;50.102;20.010;2024-02-26T07:24:42;34.63;;;32.13;;
16804;SDS011;8520;50.102;20.010;2024-02-26T07:27:10;32.83;;;30.27;;
16804;SDS011;8520;50.102;20.010;2024-02-26T07:29:38;31.73;;;29.73;;
16804;SDS011;8520;50.102;20.010;2024-02-26T07:32:06;32.13;;;29.83;;
16804;SDS011;8520;50.102;20.010;2024-02-26T07:34:35;31.80;;;29.73;;
16804;SDS011;8520;50.102;20.010;2024-02-26T07:37:05;31.00;;;28.70;;
16804;SDS011;8520;50.102;20.010;2024-02-26T07:39:33;29.80;;;27.73;;
16804;SDS011;8520;50.102;20.010;2024-02-26T07:42:01;28.13;;;26.23;;
16804;SDS011;8520;50.102;20.010;2024-02-26T07:44:30;28.63;;;26.27;;
16804;SDS011;8520;50.102;20.010;2024-02-26T07:46:57;25.33;;;23.43;;
16804;SDS011;8520;50.102;20.010;2024-02-26T07:49:25;26.67;;;24.80;;
16804;SDS011;8520;50.102;20.010;2024-02-26T07:51:55;26.10;;;24.00;;
16804;SDS011;8520;50.102;20.010;2024-02-26T07:54:24;24.83;;;23.00;;
16804;SDS011;8520;50.102;20.010;2024-02-26T07:56:53;23.50;;;21.47;;
16804;SDS011;8520;50.102;20.010;2024-02-26T07:59:20;21.33;;;19.80;;
16804;SDS011;8520;50.102;20.010;2024-02-26T08:01:49;19.67;;;18.07;;
16804;SDS011;8520;50.102;20.010;2024-02-26T08:04:22;19.33;;;17.93;;
16804;SDS011;8520;50.102;20.010;2024-02-26T08:06:50;18.70;;;17.40;;
16804;SDS011;8520;50.102;20.010;2024-02-26T08:09:20;20.63;;;18.87;;
16804;SDS011;8520;50.102;20.010;2024-02-26T08:11:48;21.67;;;19.83;;
16804;SDS011;8520;50.102;20.010;2024-02-26T08:14:16;22.20;;;20.50;;
16804;SDS011;8520;50.102;20.010;2024-02-26T08:16:44;22.00;;;20.17;;
16804;SDS011;8520;50.102;20.010;2024-02-26T08:19:12;23.53;;;20.77;;
16804;SDS011;8520;50.102;20.010;2024-02-26T08:21:41;24.27;;;21.93;;
16804;SDS011;8520;50.102;20.010;2024-02-26T08:24:09;23.10;;;20.83;;
16804;SDS011;8520;50.102;20.010;2024-02-26T08:26:39;23.03;;;21.33;;
16804;SDS011;8520;50.102;20.010;2024-02-26T08:29:07;22.20;;;20.60;;
16804;SDS011;8520;50.102;20.010;2024-02-26T08:31:35;24.33;;;21.93;;
16804;SDS011;8520;50.102;20.010;2024-02-26T08:34:04;23.43;;;21.07;;
16804;SDS011;8520;50.102;20.010;2024-02-26T08:36:33;22.77;;;20.30;;
16804;SDS011;8520;50.102;20.010;2024-02-26T08:39:01;22.50;;;20.73;;
16804;SDS011;8520;50.102;20.010;2024-02-26T08:41:29;21.43;;;20.00;;
16804;SDS011;8520;50.102;20.010;2024-02-26T08:43:58;21.90;;;19.90;;
16804;SDS011;8520;50.102;20.010;2024-02-26T08:46:26;19.30;;;17.80;;
16804;SDS011;8520;50.102;20.010;2024-02-26T08:48:54;20.00;;;18.30;;
16804;SDS011;8520;50.102;20.010;2024-02-26T08:51:22;19.40;;;18.03;;
16804;SDS011;8520;50.102;20.010;2024-02-26T08:53:50;19.43;;;17.73;;
16804;SDS011;8520;50.102;20.010;2024-02-26T08:56:20;21.33;;;19.40;;
16804;SDS011;8520;50.102;20.010;2024-02-26T08:58:48;19.83;;;18.13;;
16804;SDS011;8520;50.102;20.010;2024-02-26T09:01:21;19.90;;;18.20;;
16804;SDS011;8520;50.102;20.010;2024-02-26T09:03:50;18.63;;;17.10;;
16804;SDS011;8520;50.102;20.010;2024-02-26T09:06:18;17.30;;;16.00;;
16804;SDS011;8520;50.102;20.010;2024-02-26T09:08:46;16.63;;;15.43;;
16804;SDS011;8520;50.102;20.010;2024-02-26T09:11:14;16.40;;;15.20;;
16804;SDS011;8520;50.102;20.010;2024-02-26T09:13:42;15.67;;;14.47;;
16804;SDS011;8520;50.102;20.010;2024-02-26T09:16:11;15.40;;;14.40;;
16804;SDS011;8520;50.102;20.010;2024-02-26T09:18:40;14.23;;;13.23;;
16804;SDS011;8520;50.102;20.010;2024-02-26T09:21:08;15.37;;;13.80;;
16804;SDS011;8520;50.102;20.010;2024-02-26T09:23:36;13.60;;;12.70;;
16804;SDS011;8520;50.102;20.010;2024-02-26T09:26:05;12.93;;;11.80;;
16804;SDS011;8520;50.102;20.010;2024-02-26T09:28:33;12.63;;;11.63;;
16804;SDS011;8520;50.102;20.010;2024-02-26T09:31:04;12.70;;;11.77;;
16804;SDS011;8520;50.102;20.010;2024-02-26T09:33:32;13.20;;;12.20;;
16804;SDS011;8520;50.102;20.010;2024-02-26T09:36:03;11.90;;;11.10;;
16804;SDS011;8520;50.102;20.010;2024-02-26T09:38:33;12.43;;;11.57;;
16804;SDS011;8520;50.102;20.010;2024-02-26T09:41:21;12.33;;;11.43;;
16804;SDS011;8520;50.102;20.010;2024-02-26T09:43:49;13.07;;;12.07;;
16804;SDS011;8520;50.102;20.010;2024-02-26T09:46:19;11.88;;;11.07;;
16804;SDS011;8520;50.102;20.010;2024-02-26T09:48:47;15.97;;;10.77;;
16804;SDS011;8520;50.102;20.010;2024-02-26T09:51:16;11.43;;;10.50;;
16804;SDS011;8520;50.102;20.010;2024-02-26T09:53:45;10.77;;;10.07;;
16804;SDS011;8520;50.102;20.010;2024-02-26T09:56:14;10.82;;;10.10;;
16804;SDS011;8520;50.102;20.010;2024-02-26T09:58:42;10.70;;;10.00;;
16804;SDS011;8520;50.102;20.010;2024-02-26T10:01:13;10.20;;;9.40;;
16804;SDS011;8520;50.102;20.010;2024-02-26T10:03:41;11.00;;;10.23;;
16804;SDS011;8520;50.102;20.010;2024-02-26T10:06:11;10.63;;;9.93;;
16804;SDS011;8520;50.102;20.010;2024-02-26T10:08:40;9.82;;;9.02;;
16804;SDS011;8520;50.102;20.010;2024-02-26T10:11:09;13.07;;;8.50;;
16804;SDS011;8520;50.102;20.010;2024-02-26T10:13:38;13.02;;;8.73;;
16804;SDS011;8520;50.102;20.010;2024-02-26T10:16:06;8.02;;;7.53;;
16804;SDS011;8520;50.102;20.010;2024-02-26T10:18:47;8.82;;;8.07;;
16804;SDS011;8520;50.102;20.010;2024-02-26T10:21:18;7.35;;;6.88;;
16804;SDS011;8520;50.102;20.010;2024-02-26T10:23:48;8.95;;;6.90;;
16804;SDS011;8520;50.102;20.010;2024-02-26T10:26:17;6.90;;;6.40;;
16804;SDS011;8520;50.102;20.010;2024-02-26T10:28:45;6.50;;;5.82;;
16804;SDS011;8520;50.102;20.010;2024-02-26T10:31:18;6.80;;;6.20;;
16804;SDS011;8520;50.102;20.010;2024-02-26T10:33:46;5.80;;;5.50;;
16804;SDS011;8520;50.102;20.010;2024-02-26T10:36:15;5.93;;;5.40;;
16804;SDS011;8520;50.102;20.010;2024-02-26T10:38:43;5.13;;;4.82;;
16804;SDS011;8520;50.102;20.010;2024-02-26T10:41:14;5.45;;;5.05;;
16804;SDS011;8520;50.102;20.010;2024-02-26T10:43:42;6.13;;;4.78;;
16804;SDS011;8520;50.102;20.010;2024-02-26T10:46:11;4.90;;;4.50;;
16804;SDS011;8520;50.102;20.010;2024-02-26T10:48:39;6.10;;;4.60;;
16804;SDS011;8520;50.102;20.010;2024-02-26T10:51:07;4.20;;;3.90;;
16804;SDS011;8520;50.102;20.010;2024-02-26T10:53:37;5.40;;;5.00;;
16804;SDS011;8520;50.102;20.010;2024-02-26T10:56:05;4.90;;;4.32;;
16804;SDS011;8520;50.102;20.010;2024-02-26T10:58:36;4.60;;;4.25;;
16804;SDS011;8520;50.102;20.010;2024-02-26T11:01:04;4.65;;;4.28;;
16804;SDS011;8520;50.102;20.010;2024-02-26T11:03:32;4.28;;;3.83;;
16804;SDS011;8520;50.102;20.010;2024-02-26T11:06:02;4.38;;;3.88;;
16804;SDS011;8520;50.102;20.010;2024-02-26T11:08:31;4.00;;;3.55;;
16804;SDS011;8520;50.102;20.010;2024-02-26T11:11:00;4.13;;;3.45;;
16804;SDS011;8520;50.102;20.010;2024-02-26T11:13:29;5.63;;;3.70;;
16804;SDS011;8520;50.102;20.010;2024-02-26T11:16:03;4.55;;;3.88;;
16804;SDS011;8520;50.102;20.010;2024-02-26T11:18:31;4.28;;;3.88;;
16804;SDS011;8520;50.102;20.010;2024-02-26T11:20:59;3.33;;;3.13;;
16804;SDS011;8520;50.102;20.010;2024-02-26T11:23:28;3.80;;;3.60;;
16804;SDS011;8520;50.102;20.010;2024-02-26T11:25:56;3.85;;;3.55;;
16804;SDS011;8520;50.102;20.010;2024-02-26T11:28:26;4.25;;;3.92;;
16804;SDS011;8520;50.102;20.010;2024-02-26T11:30:55;3.90;;;3.70;;
16804;SDS011;8520;50.102;20.010;2024-02-26T11:33:27;3.90;;;3.60;;
16804;SDS011;8520;50.102;20.010;2024-02-26T11:35:56;5.07;;;4.68;;
16804;SDS011;8520;50.102;20.010;2024-02-26T11:38:25;4.00;;;3.80;;
16804;SDS011;8520;50.102;20.010;2024-02-26T11:40:54;4.55;;;3.80;;
16804;SDS011;8520;50.102;20.010;2024-02-26T11:43:23;4.40;;;4.00;;
16804;SDS011;8520;50.102;20.010;2024-02-26T11:45:51;5.03;;;4.63;;
16804;SDS011;8520;50.102;20.010;2024-02-26T11:48:22;4.82;;;4.53;;
16804;SDS011;8520;50.102;20.010;2024-02-26T11:50:53;4.13;;;3.50;;
16804;SDS011;8520;50.102;20.010;2024-02-26T11:53:22;4.43;;;4.03;;
16804;SDS011;8520;50.102;20.010;2024-02-26T11:58:38;5.47;;;3.50;;
16804;SDS011;8520;50.102;20.010;2024-02-26T12:03:49;4.22;;;4.00;;
16804;SDS011;8520;50.102;20.010;2024-02-26T12:06:19;3.85;;;3.65;;
16804;SDS011;8520;50.102;20.010;2024-02-26T12:08:48;3.90;;;3.65;;
16804;SDS011;8520;50.102;20.010;2024-02-26T12:11:16;4.18;;;3.88;;
16804;SDS011;8520;50.102;20.010;2024-02-26T12:13:45;4.10;;;3.90;;
16804;SDS011;8520;50.102;20.010;2024-02-26T12:18:59;5.40;;;4.90;;
16804;SDS011;8520;50.102;20.010;2024-02-26T12:21:28;5.90;;;4.50;;
16804;SDS011;8520;50.102;20.010;2024-02-26T12:24:06;6.72;;;4.57;;
16804;SDS011;8520;50.102;20.010;2024-02-26T12:26:34;4.55;;;4.15;;
16804;SDS011;8520;50.102;20.010;2024-02-26T12:29:02;7.20;;;4.75;;
16804;SDS011;8520;50.102;20.010;2024-02-26T12:31:30;6.78;;;4.53;;
16804;SDS011;8520;50.102;20.010;2024-02-26T12:33:58;4.90;;;4.60;;
16804;SDS011;8520;50.102;20.010;2024-02-26T12:36:28;5.00;;;4.20;;
16804;SDS011;8520;50.102;20.010;2024-02-26T12:38:56;4.15;;;3.85;;
16804;SDS011;8520;50.102;20.010;2024-02-26T12:41:25;4.90;;;4.50;;
16804;SDS011;8520;50.102;20.010;2024-02-26T12:43:53;4.65;;;4.35;;
16804;SDS011;8520;50.102;20.010;2024-02-26T12:46:21;4.70;;;4.43;;
16804;SDS011;8520;50.102;20.010;2024-02-26T12:48:49;5.00;;;4.65;;
16804;SDS011;8520;50.102;20.010;2024-02-26T12:51:17;5.50;;;4.43;;
16804;SDS011;8520;50.102;20.010;2024-02-26T12:53:46;4.28;;;3.88;;
16804;SDS011;8520;50.102;20.010;2024-02-26T12:56:16;4.32;;;4.10;;
16804;SDS011;8520;50.102;20.010;2024-02-26T12:58:45;4.30;;;4.10;;
16804;SDS011;8520;50.102;20.010;2024-02-26T13:01:14;4.68;;;4.28;;
16804;SDS011;8520;50.102;20.010;2024-02-26T13:03:42;4.30;;;4.00;;
16804;SDS011;8520;50.102;20.010;2024-02-26T13:06:11;4.47;;;4.28;;
16804;SDS011;8520;50.102;20.010;2024-02-26T13:08:39;4.20;;;4.00;;
16804;SDS011;8520;50.102;20.010;2024-02-26T13:11:09;4.28;;;3.97;;
16804;SDS011;8520;50.102;20.010;2024-02-26T13:13:37;5.00;;;4.60;;
16804;SDS011;8520;50.102;20.010;2024-02-26T13:16:05;7.80;;;5.35;;
16804;SDS011;8520;50.102;20.010;2024-02-26T13:18:35;5.03;;;4.70;;
16804;SDS011;8520;50.102;20.010;2024-02-26T13:21:10;5.32;;;4.95;;
16804;SDS011;8520;50.102;20.010;2024-02-26T13:23:38;5.22;;;4.80;;
16804;SDS011;8520;50.102;20.010;2024-02-26T13:26:07;5.15;;;4.75;;
16804;SDS011;8520;50.102;20.010;2024-02-26T13:28:37;5.82;;;4.60;;
16804;SDS011;8520;50.102;20.010;2024-02-26T13:31:04;5.75;;;5.22;;
16804;SDS011;8520;50.102;20.010;2024-02-26T13:33:34;6.20;;;5.80;;
16804;SDS011;8520;50.102;20.010;2024-02-26T13:36:02;5.65;;;5.30;;
16804;SDS011;8520;50.102;20.010;2024-02-26T13:38:30;6.18;;;5.80;;
16804;SDS011;8520;50.102;20.010;2024-02-26T13:40:58;6.10;;;5.70;;
16804;SDS011;8520;50.102;20.010;2024-02-26T13:43:26;5.75;;;5.43;;
16804;SDS011;8520;50.102;20.010;2024-02-26T13:45:56;5.88;;;5.57;;
16804;SDS011;8520;50.102;20.010;2024-02-26T13:48:24;5.38;;;5.05;;
16804;SDS011;8520;50.102;20.010;2024-02-26T13:50:52;5.75;;;5.30;;
16804;SDS011;8520;50.102;20.010;2024-02-26T13:53:20;5.47;;;5.07;;
16804;SDS011;8520;50.102;20.010;2024-02-26T13:55:50;5.30;;;5.00;;
16804;SDS011;8520;50.102;20.010;2024-02-26T13:58:18;5.68;;;5.13;;
16804;SDS011;8520;50.102;20.010;2024-02-26T14:00:49;6.07;;;5.68;;
16804;SDS011;8520;50.102;20.010;2024-02-26T14:03:19;5.65;;;5.32;;
16804;SDS011;8520;50.102;20.010;2024-02-26T14:05:47;6.38;;;5.88;;
16804;SDS011;8520;50.102;20.010;2024-02-26T14:08:15;6.82;;;6.32;;
16804;SDS011;8520;50.102;20.010;2024-02-26T14:10:43;6.32;;;5.75;;
16804;SDS011;8520;50.102;20.010;2024-02-26T14:13:11;6.57;;;6.20;;
16804;SDS011;8520;50.102;20.010;2024-02-26T14:15:40;7.32;;;6.63;;
16804;SDS011;8520;50.102;20.010;2024-02-26T14:18:08;7.13;;;6.47;;
16804;SDS011;8520;50.102;20.010;2024-02-26T14:20:37;6.97;;;6.47;;
16804;SDS011;8520;50.102;20.010;2024-02-26T14:23:07;7.32;;;6.78;;
16804;SDS011;8520;50.102;20.010;2024-02-26T14:25:35;7.60;;;6.97;;
16804;SDS011;8520;50.102;20.010;2024-02-26T14:28:04;7.07;;;6.68;;
16804;SDS011;8520;50.102;20.010;2024-02-26T14:30:33;7.95;;;7.45;;
16804;SDS011;8520;50.102;20.010;2024-02-26T14:33:02;7.78;;;7.25;;
16804;SDS011;8520;50.102;20.010;2024-02-26T14:35:30;7.53;;;7.03;;
16804;SDS011;8520;50.102;20.010;2024-02-26T14:37:59;8.23;;;7.63;;
16804;SDS011;8520;50.102;20.010;2024-02-26T14:40:28;8.50;;;8.00;;
16804;SDS011;8520;50.102;20.010;2024-02-26T14:42:56;8.23;;;7.50;;
16804;SDS011;8520;50.102;20.010;2024-02-26T14:45:26;8.20;;;7.60;;